sensor_id;sensor_type;location;lat;lon;timestamp;P1;durP1;ratioP1;P2;durP2;ratioP2
29358;SDS011;16347;53.232;6.556;2022-07-04T00:01:59;9.00;;;2.88;;
29358;SDS011;16347;53.232;6.556;2022-07-04T00:04:46;6.72;;;2.72;;
29358;SDS011;16347;53.232;6.556;2022-07-04T00:07:15;9.25;;;2.67;;
29358;SDS011;16347;53.232;6.556;2022-07-04T00:09:43;6.50;;;2.55;;
29358;SDS011;16347;53.232;6.556;2022-07-04T00:12:10;7.53;;;2.60;;
29358;SDS011;16347;53.232;6.556;2022-07-04T00:14:40;11.40;;;3.25;;
29358;SDS011;16347;53.232;6.556;2022-07-04T00:17:08;6.45;;;2.60;;
29358;SDS011;16347;53.232;6.556;2022-07-04T00:19:36;12.32;;;2.90;;
29358;SDS011;16347;53.232;6.556;2022-07-04T00:22:05;8.80;;;2.85;;
29358;SDS011;16347;53.232;6.556;2022-07-04T00:24:33;9.57;;;3.05;;
29358;SDS011;16347;53.232;6.556;2022-07-04T00:27:01;4.55;;;2.40;;
29358;SDS011;16347;53.232;6.556;2022-07-04T00:29:29;9.48;;;3.22;;
29358;SDS011;16347;53.232;6.556;2022-07-04T00:31:58;5.20;;;2.50;;
29358;SDS011;16347;53.232;6.556;2022-07-04T00:34:27;7.93;;;3.08;;
29358;SDS011;16347;53.232;6.556;2022-07-04T00:36:55;6.85;;;2.50;;
29358;SDS011;16347;53.232;6.556;2022-07-04T00:39:23;7.70;;;2.70;;
29358;SDS011;16347;53.232;6.556;2022-07-04T00:41:51;5.55;;;2.15;;
29358;SDS011;16347;53.232;6.556;2022-07-04T00:44:19;8.02;;;2.60;;
29358;SDS011;16347;53.232;6.556;2022-07-04T00:46:47;10.77;;;2.15;;
29358;SDS011;16347;53.232;6.556;2022-07-04T00:49:17;8.05;;;2.63;;
29358;SDS011;16347;53.232;6.556;2022-07-04T00:51:46;5.15;;;2.95;;
29358;SDS011;16347;53.232;6.556;2022-07-04T00:54:15;5.68;;;2.63;;
29358;SDS011;16347;53.232;6.556;2022-07-04T00:56:45;5.10;;;2.08;;
29358;SDS011;16347;53.232;6.556;2022-07-04T00:59:13;6.63;;;2.30;;
29358;SDS011;16347;53.232;6.556;2022-07-04T01:01:41;4.50;;;2.13;;
29358;SDS011;16347;53.232;6.556;2022-07-04T01:04:09;3.40;;;2.08;;
29358;SDS011;16347;53.232;6.556;2022-07-04T01:06:38;5.07;;;2.13;;
29358;SDS011;16347;53.232;6.556;2022-07-04T01:09:06;7.72;;;2.53;;
29358;SDS011;16347;53.232;6.556;2022-07-04T01:11:34;6.82;;;2.15;;
29358;SDS011;16347;53.232;6.556;2022-07-04T01:14:02;8.60;;;2.45;;
29358;SDS011;16347;53.232;6.556;2022-07-04T01:16:32;13.20;;;2.70;;
29358;SDS011;16347;53.232;6.556;2022-07-04T01:19:00;6.40;;;2.42;;
29358;SDS011;16347;53.232;6.556;2022-07-04T01:21:31;4.20;;;2.75;;
29358;SDS011;16347;53.232;6.556;2022-07-04T01:23:59;9.63;;;3.30;;
29358;SDS011;16347;53.232;6.556;2022-07-04T01:26:27;5.40;;;2.65;;
29358;SDS011;16347;53.232;6.556;2022-07-04T01:28:55;6.80;;;3.15;;
29358;SDS011;16347;53.232;6.556;2022-07-04T01:31:23;5.43;;;3.65;;
29358;SDS011;16347;53.232;6.556;2022-07-04T01:33:51;7.40;;;3.25;;
29358;SDS011;16347;53.232;6.556;2022-07-04T01:36:19;7.13;;;2.85;;
29358;SDS011;16347;53.232;6.556;2022-07-04T01:38:49;8.40;;;3.25;;
29358;SDS011;16347;53.232;6.556;2022-07-04T01:41:17;6.95;;;3.15;;
29358;SDS011;16347;53.232;6.556;2022-07-04T01:43:45;8.23;;;3.00;;
29358;SDS011;16347;53.232;6.556;2022-07-04T01:46:13;9.63;;;2.97;;
29358;SDS011;16347;53.232;6.556;2022-07-04T01:48:41;9.63;;;4.10;;
29358;SDS011;16347;53.232;6.556;2022-07-04T01:51:08;7.95;;;3.20;;
29358;SDS011;16347;53.232;6.556;2022-07-04T01:53:36;7.55;;;3.00;;
29358;SDS011;16347;53.232;6.556;2022-07-04T01:56:06;5.03;;;3.38;;
29358;SDS011;16347;53.232;6.556;2022-07-04T01:58:34;12.52;;;2.92;;
29358;SDS011;16347;53.232;6.556;2022-07-04T02:01:02;5.35;;;3.17;;
29358;SDS011;16347;53.232;6.556;2022-07-04T02:03:48;5.97;;;3.30;;
29358;SDS011;16347;53.232;6.556;2022-07-04T02:06:16;9.02;;;3.20;;
29358;SDS011;16347;53.232;6.556;2022-07-04T02:08:44;4.75;;;2.95;;
29358;SDS011;16347;53.232;6.556;2022-07-04T02:11:31;7.68;;;4.10;;
29358;SDS011;16347;53.232;6.556;2022-07-04T02:14:19;5.50;;;3.00;;
29358;SDS011;16347;53.232;6.556;2022-07-04T02:16:47;8.32;;;3.80;;
29358;SDS011;16347;53.232;6.556;2022-07-04T02:19:15;8.65;;;3.72;;
29358;SDS011;16347;53.232;6.556;2022-07-04T02:21:43;8.65;;;3.35;;
29358;SDS011;16347;53.232;6.556;2022-07-04T02:24:12;8.40;;;3.63;;
29358;SDS011;16347;53.232;6.556;2022-07-04T02:26:41;8.60;;;3.40;;
29358;SDS011;16347;53.232;6.556;2022-07-04T02:29:09;7.38;;;3.53;;
29358;SDS011;16347;53.232;6.556;2022-07-04T02:31:37;7.63;;;3.60;;
29358;SDS011;16347;53.232;6.556;2022-07-04T02:34:05;9.90;;;3.83;;
29358;SDS011;16347;53.232;6.556;2022-07-04T02:36:33;6.35;;;3.38;;
29358;SDS011;16347;53.232;6.556;2022-07-04T02:39:01;6.85;;;3.35;;
29358;SDS011;16347;53.232;6.556;2022-07-04T02:41:31;4.75;;;3.70;;
29358;SDS011;16347;53.232;6.556;2022-07-04T02:44:00;4.80;;;3.63;;
29358;SDS011;16347;53.232;6.556;2022-07-04T02:46:29;5.68;;;3.22;;
29358;SDS011;16347;53.232;6.556;2022-07-04T02:48:59;10.55;;;3.47;;
29358;SDS011;16347;53.232;6.556;2022-07-04T02:51:27;8.10;;;3.70;;
29358;SDS011;16347;53.232;6.556;2022-07-04T02:53:55;6.70;;;4.10;;
29358;SDS011;16347;53.232;6.556;2022-07-04T02:56:23;8.52;;;4.22;;
29358;SDS011;16347;53.232;6.556;2022-07-04T02:58:52;6.32;;;4.05;;
29358;SDS011;16347;53.232;6.556;2022-07-04T03:01:21;6.05;;;3.95;;
29358;SDS011;16347;53.232;6.556;2022-07-04T03:03:49;11.95;;;4.68;;
29358;SDS011;16347;53.232;6.556;2022-07-04T03:06:18;8.93;;;4.40;;
29358;SDS011;16347;53.232;6.556;2022-07-04T03:08:46;7.22;;;3.78;;
29358;SDS011;16347;53.232;6.556;2022-07-04T03:11:14;8.95;;;4.57;;
29358;SDS011;16347;53.232;6.556;2022-07-04T03:13:42;10.57;;;4.30;;
29358;SDS011;16347;53.232;6.556;2022-07-04T03:16:10;7.25;;;4.97;;
29358;SDS011;16347;53.232;6.556;2022-07-04T03:18:39;11.68;;;6.00;;
29358;SDS011;16347;53.232;6.556;2022-07-04T03:21:07;11.93;;;5.20;;
29358;SDS011;16347;53.232;6.556;2022-07-04T03:23:38;13.38;;;5.32;;
29358;SDS011;16347;53.232;6.556;2022-07-04T03:26:06;9.27;;;4.82;;
29358;SDS011;16347;53.232;6.556;2022-07-04T03:28:35;10.00;;;4.75;;
29358;SDS011;16347;53.232;6.556;2022-07-04T03:31:03;8.13;;;4.57;;
29358;SDS011;16347;53.232;6.556;2022-07-04T03:33:31;18.05;;;4.75;;
29358;SDS011;16347;53.232;6.556;2022-07-04T03:36:01;9.82;;;5.53;;
29358;SDS011;16347;53.232;6.556;2022-07-04T03:38:29;10.10;;;4.65;;
29358;SDS011;16347;53.232;6.556;2022-07-04T03:40:57;8.52;;;4.72;;
29358;SDS011;16347;53.232;6.556;2022-07-04T03:43:25;13.18;;;4.82;;
29358;SDS011;16347;53.232;6.556;2022-07-04T03:45:53;9.50;;;5.03;;
29358;SDS011;16347;53.232;6.556;2022-07-04T03:48:21;10.48;;;5.22;;
29358;SDS011;16347;53.232;6.556;2022-07-04T03:50:49;11.82;;;5.13;;
29358;SDS011;16347;53.232;6.556;2022-07-04T03:53:18;9.75;;;4.88;;
29358;SDS011;16347;53.232;6.556;2022-07-04T03:55:47;10.05;;;5.20;;
29358;SDS011;16347;53.232;6.556;2022-07-04T03:58:15;10.52;;;5.53;;
29358;SDS011;16347;53.232;6.556;2022-07-04T04:00:44;9.73;;;5.28;;
29358;SDS011;16347;53.232;6.556;2022-07-04T04:03:12;9.73;;;5.40;;
29358;SDS011;16347;53.232;6.556;2022-07-04T04:05:54;10.15;;;5.28;;
29358;SDS011;16347;53.232;6.556;2022-07-04T04:08:24;9.80;;;5.05;;
29358;SDS011;16347;53.232;6.556;2022-07-04T04:10:51;8.80;;;4.57;;
29358;SDS011;16347;53.232;6.556;2022-07-04T04:13:19;7.80;;;5.10;;
29358;SDS011;16347;53.232;6.556;2022-07-04T04:15:47;7.90;;;4.45;;
29358;SDS011;16347;53.232;6.556;2022-07-04T04:18:15;11.93;;;4.82;;
29358;SDS011;16347;53.232;6.556;2022-07-04T04:20:43;12.32;;;4.90;;
29358;SDS011;16347;53.232;6.556;2022-07-04T04:23:11;9.98;;;4.78;;
29358;SDS011;16347;53.232;6.556;2022-07-04T04:25:40;9.05;;;4.70;;
29358;SDS011;16347;53.232;6.556;2022-07-04T04:28:09;17.15;;;5.25;;
29358;SDS011;16347;53.232;6.556;2022-07-04T04:30:37;8.68;;;4.78;;
29358;SDS011;16347;53.232;6.556;2022-07-04T04:33:05;10.63;;;4.63;;
29358;SDS011;16347;53.232;6.556;2022-07-04T04:35:33;6.97;;;4.45;;
29358;SDS011;16347;53.232;6.556;2022-07-04T04:38:02;7.50;;;5.10;;
29358;SDS011;16347;53.232;6.556;2022-07-04T04:40:30;15.45;;;4.70;;
29358;SDS011;16347;53.232;6.556;2022-07-04T04:42:59;8.98;;;4.43;;
29358;SDS011;16347;53.232;6.556;2022-07-04T04:45:28;8.07;;;4.57;;
29358;SDS011;16347;53.232;6.556;2022-07-04T04:47:56;7.93;;;4.63;;
29358;SDS011;16347;53.232;6.556;2022-07-04T04:50:23;11.70;;;5.03;;
29358;SDS011;16347;53.232;6.556;2022-07-04T04:52:52;11.63;;;4.40;;
29358;SDS011;16347;53.232;6.556;2022-07-04T04:55:20;8.82;;;5.05;;
29358;SDS011;16347;53.232;6.556;2022-07-04T04:57:48;10.48;;;4.65;;
29358;SDS011;16347;53.232;6.556;2022-07-04T05:00:18;9.70;;;4.78;;
29358;SDS011;16347;53.232;6.556;2022-07-04T05:02:47;9.43;;;4.53;;
29358;SDS011;16347;53.232;6.556;2022-07-04T05:05:15;10.52;;;4.00;;
29358;SDS011;16347;53.232;6.556;2022-07-04T05:07:43;7.72;;;4.78;;
29358;SDS011;16347;53.232;6.556;2022-07-04T05:10:11;8.73;;;4.00;;
29358;SDS011;16347;53.232;6.556;2022-07-04T05:12:40;9.15;;;3.78;;
29358;SDS011;16347;53.232;6.556;2022-07-04T05:15:08;8.43;;;4.00;;
29358;SDS011;16347;53.232;6.556;2022-07-04T05:17:39;7.43;;;3.97;;
29358;SDS011;16347;53.232;6.556;2022-07-04T05:20:07;10.88;;;4.22;;
29358;SDS011;16347;53.232;6.556;2022-07-04T05:22:36;11.05;;;4.30;;
29358;SDS011;16347;53.232;6.556;2022-07-04T05:25:04;14.98;;;5.13;;
29358;SDS011;16347;53.232;6.556;2022-07-04T05:27:33;10.32;;;4.80;;
29358;SDS011;16347;53.232;6.556;2022-07-04T05:30:01;12.48;;;4.57;;
29358;SDS011;16347;53.232;6.556;2022-07-04T05:32:29;12.93;;;4.70;;
29358;SDS011;16347;53.232;6.556;2022-07-04T05:34:59;9.55;;;4.65;;
29358;SDS011;16347;53.232;6.556;2022-07-04T05:37:28;16.33;;;4.78;;
29358;SDS011;16347;53.232;6.556;2022-07-04T05:39:56;9.82;;;4.07;;
29358;SDS011;16347;53.232;6.556;2022-07-04T05:42:24;7.72;;;4.32;;
29358;SDS011;16347;53.232;6.556;2022-07-04T05:44:52;7.28;;;4.63;;
29358;SDS011;16347;53.232;6.556;2022-07-04T05:47:20;9.75;;;4.50;;
29358;SDS011;16347;53.232;6.556;2022-07-04T05:49:50;10.60;;;4.63;;
29358;SDS011;16347;53.232;6.556;2022-07-04T05:52:19;17.33;;;5.68;;
29358;SDS011;16347;53.232;6.556;2022-07-04T05:54:47;9.05;;;4.20;;
29358;SDS011;16347;53.232;6.556;2022-07-04T05:57:15;12.57;;;4.75;;
29358;SDS011;16347;53.232;6.556;2022-07-04T05:59:43;9.93;;;4.55;;
29358;SDS011;16347;53.232;6.556;2022-07-04T06:02:12;9.63;;;4.75;;
29358;SDS011;16347;53.232;6.556;2022-07-04T06:04:42;11.80;;;4.80;;
29358;SDS011;16347;53.232;6.556;2022-07-04T06:07:11;10.43;;;4.35;;
29358;SDS011;16347;53.232;6.556;2022-07-04T06:09:40;9.98;;;5.22;;
29358;SDS011;16347;53.232;6.556;2022-07-04T06:12:08;13.90;;;4.50;;
29358;SDS011;16347;53.232;6.556;2022-07-04T06:14:37;14.20;;;4.25;;
29358;SDS011;16347;53.232;6.556;2022-07-04T06:17:05;11.25;;;4.68;;
29358;SDS011;16347;53.232;6.556;2022-07-04T06:19:33;9.48;;;4.10;;
29358;SDS011;16347;53.232;6.556;2022-07-04T06:22:01;12.23;;;4.97;;
29358;SDS011;16347;53.232;6.556;2022-07-04T06:24:29;10.45;;;3.95;;
29358;SDS011;16347;53.232;6.556;2022-07-04T06:26:59;12.82;;;3.85;;
29358;SDS011;16347;53.232;6.556;2022-07-04T06:29:27;7.35;;;3.42;;
29358;SDS011;16347;53.232;6.556;2022-07-04T06:31:55;10.13;;;3.83;;
29358;SDS011;16347;53.232;6.556;2022-07-04T06:34:23;10.68;;;3.60;;
29358;SDS011;16347;53.232;6.556;2022-07-04T06:37:09;13.13;;;3.33;;
29358;SDS011;16347;53.232;6.556;2022-07-04T06:39:37;9.52;;;3.38;;
29358;SDS011;16347;53.232;6.556;2022-07-04T06:42:06;7.70;;;3.58;;
29358;SDS011;16347;53.232;6.556;2022-07-04T06:44:34;11.88;;;3.83;;
29358;SDS011;16347;53.232;6.556;2022-07-04T06:47:02;11.23;;;3.47;;
29358;SDS011;16347;53.232;6.556;2022-07-04T06:49:30;10.23;;;3.55;;
29358;SDS011;16347;53.232;6.556;2022-07-04T06:51:58;7.13;;;3.85;;
29358;SDS011;16347;53.232;6.556;2022-07-04T06:54:26;12.38;;;3.83;;
29358;SDS011;16347;53.232;6.556;2022-07-04T06:56:54;17.52;;;3.78;;
29358;SDS011;16347;53.232;6.556;2022-07-04T06:59:43;6.32;;;3.63;;
29358;SDS011;16347;53.232;6.556;2022-07-04T07:02:12;11.85;;;3.50;;
29358;SDS011;16347;53.232;6.556;2022-07-04T07:04:40;10.20;;;3.45;;
29358;SDS011;16347;53.232;6.556;2022-07-04T07:07:09;7.75;;;3.70;;
29358;SDS011;16347;53.232;6.556;2022-07-04T07:09:37;7.72;;;3.53;;
29358;SDS011;16347;53.232;6.556;2022-07-04T07:12:05;11.52;;;3.70;;
29358;SDS011;16347;53.232;6.556;2022-07-04T07:14:33;14.38;;;4.13;;
29358;SDS011;16347;53.232;6.556;2022-07-04T07:17:03;12.35;;;3.83;;
29358;SDS011;16347;53.232;6.556;2022-07-04T07:19:31;22.02;;;4.97;;
29358;SDS011;16347;53.232;6.556;2022-07-04T07:21:59;15.60;;;3.83;;
29358;SDS011;16347;53.232;6.556;2022-07-04T07:24:27;20.52;;;4.10;;
29358;SDS011;16347;53.232;6.556;2022-07-04T07:26:57;20.85;;;4.07;;
29358;SDS011;16347;53.232;6.556;2022-07-04T07:29:25;7.65;;;3.35;;
29358;SDS011;16347;53.232;6.556;2022-07-04T07:31:52;8.82;;;3.40;;
29358;SDS011;16347;53.232;6.556;2022-07-04T07:34:22;13.70;;;3.17;;
29358;SDS011;16347;53.232;6.556;2022-07-04T07:36:50;12.68;;;4.13;;
29358;SDS011;16347;53.232;6.556;2022-07-04T07:39:18;12.05;;;3.55;;
29358;SDS011;16347;53.232;6.556;2022-07-04T07:41:46;9.52;;;3.70;;
29358;SDS011;16347;53.232;6.556;2022-07-04T07:44:15;10.25;;;3.55;;
29358;SDS011;16347;53.232;6.556;2022-07-04T07:46:43;10.23;;;3.72;;
29358;SDS011;16347;53.232;6.556;2022-07-04T07:49:10;10.18;;;3.35;;
29358;SDS011;16347;53.232;6.556;2022-07-04T07:51:40;11.52;;;3.65;;
29358;SDS011;16347;53.232;6.556;2022-07-04T07:54:08;11.77;;;3.70;;
29358;SDS011;16347;53.232;6.556;2022-07-04T07:56:53;10.48;;;3.40;;
29358;SDS011;16347;53.232;6.556;2022-07-04T07:59:21;9.95;;;4.05;;
29358;SDS011;16347;53.232;6.556;2022-07-04T08:01:49;9.10;;;3.13;;
29358;SDS011;16347;53.232;6.556;2022-07-04T08:04:17;4.13;;;2.35;;
29358;SDS011;16347;53.232;6.556;2022-07-04T08:07:05;10.75;;;2.38;;
29358;SDS011;16347;53.232;6.556;2022-07-04T08:09:48;11.60;;;2.90;;
29358;SDS011;16347;53.232;6.556;2022-07-04T08:12:16;7.00;;;2.28;;
29358;SDS011;16347;53.232;6.556;2022-07-04T08:14:44;5.90;;;2.30;;
29358;SDS011;16347;53.232;6.556;2022-07-04T08:17:12;8.02;;;2.35;;
29358;SDS011;16347;53.232;6.556;2022-07-04T08:19:40;8.63;;;2.45;;
29358;SDS011;16347;53.232;6.556;2022-07-04T08:22:11;10.55;;;3.05;;
29358;SDS011;16347;53.232;6.556;2022-07-04T08:24:40;10.57;;;3.20;;
29358;SDS011;16347;53.232;6.556;2022-07-04T08:27:08;12.77;;;3.60;;
29358;SDS011;16347;53.232;6.556;2022-07-04T08:29:37;10.23;;;2.65;;
29358;SDS011;16347;53.232;6.556;2022-07-04T08:32:05;13.18;;;3.15;;
29358;SDS011;16347;53.232;6.556;2022-07-04T08:34:34;5.60;;;2.53;;
29358;SDS011;16347;53.232;6.556;2022-07-04T08:37:02;6.40;;;2.92;;
29358;SDS011;16347;53.232;6.556;2022-07-04T08:39:32;9.77;;;2.53;;
29358;SDS011;16347;53.232;6.556;2022-07-04T08:42:02;7.75;;;2.28;;
29358;SDS011;16347;53.232;6.556;2022-07-04T08:44:33;9.23;;;2.28;;
29358;SDS011;16347;53.232;6.556;2022-07-04T08:47:07;6.18;;;1.80;;
29358;SDS011;16347;53.232;6.556;2022-07-04T08:49:42;8.38;;;2.45;;
29358;SDS011;16347;53.232;6.556;2022-07-04T08:52:14;6.68;;;2.00;;
29358;SDS011;16347;53.232;6.556;2022-07-04T08:54:52;6.43;;;2.03;;
29358;SDS011;16347;53.232;6.556;2022-07-04T08:57:44;6.30;;;1.70;;
29358;SDS011;16347;53.232;6.556;2022-07-04T09:00:31;2.72;;;1.38;;
29358;SDS011;16347;53.232;6.556;2022-07-04T09:02:59;3.80;;;1.17;;
29358;SDS011;16347;53.232;6.556;2022-07-04T09:05:30;3.97;;;1.00;;
29358;SDS011;16347;53.232;6.556;2022-07-04T09:07:58;1.70;;;0.85;;
29358;SDS011;16347;53.232;6.556;2022-07-04T09:10:29;6.88;;;1.20;;
29358;SDS011;16347;53.232;6.556;2022-07-04T09:13:00;8.07;;;1.40;;
29358;SDS011;16347;53.232;6.556;2022-07-04T09:15:38;2.15;;;0.90;;
29358;SDS011;16347;53.232;6.556;2022-07-04T09:18:08;4.97;;;1.13;;
29358;SDS011;16347;53.232;6.556;2022-07-04T09:20:47;3.67;;;1.00;;
29358;SDS011;16347;53.232;6.556;2022-07-04T09:23:19;3.45;;;0.80;;
29358;SDS011;16347;53.232;6.556;2022-07-04T09:28:33;3.22;;;1.15;;
29358;SDS011;16347;53.232;6.556;2022-07-04T09:31:01;3.00;;;1.00;;
29358;SDS011;16347;53.232;6.556;2022-07-04T09:33:43;2.45;;;0.80;;
29358;SDS011;16347;53.232;6.556;2022-07-04T09:36:17;3.40;;;0.90;;
29358;SDS011;16347;53.232;6.556;2022-07-04T09:41:54;8.98;;;1.30;;
29358;SDS011;16347;53.232;6.556;2022-07-04T09:44:23;2.45;;;0.90;;
29358;SDS011;16347;53.232;6.556;2022-07-04T09:46:52;5.03;;;1.27;;
29358;SDS011;16347;53.232;6.556;2022-07-04T09:49:20;3.42;;;1.20;;
29358;SDS011;16347;53.232;6.556;2022-07-04T09:51:50;3.58;;;0.98;;
29358;SDS011;16347;53.232;6.556;2022-07-04T09:54:20;3.13;;;1.27;;
29358;SDS011;16347;53.232;6.556;2022-07-04T09:56:54;5.90;;;1.17;;
29358;SDS011;16347;53.232;6.556;2022-07-04T09:59:23;8.27;;;1.30;;
29358;SDS011;16347;53.232;6.556;2022-07-04T10:02:04;3.03;;;1.00;;
29358;SDS011;16347;53.232;6.556;2022-07-04T10:04:43;3.10;;;1.27;;
29358;SDS011;16347;53.232;6.556;2022-07-04T10:07:29;5.45;;;0.98;;
29358;SDS011;16347;53.232;6.556;2022-07-04T10:09:58;3.55;;;1.30;;
29358;SDS011;16347;53.232;6.556;2022-07-04T10:12:27;3.08;;;1.33;;
29358;SDS011;16347;53.232;6.556;2022-07-04T10:14:56;7.47;;;1.23;;
29358;SDS011;16347;53.232;6.556;2022-07-04T10:17:24;9.63;;;2.15;;
29358;SDS011;16347;53.232;6.556;2022-07-04T10:19:52;4.60;;;1.30;;
29358;SDS011;16347;53.232;6.556;2022-07-04T10:22:21;3.10;;;1.00;;
29358;SDS011;16347;53.232;6.556;2022-07-04T10:24:51;3.13;;;1.17;;
29358;SDS011;16347;53.232;6.556;2022-07-04T10:27:19;2.92;;;1.20;;
29358;SDS011;16347;53.232;6.556;2022-07-04T10:29:48;3.13;;;1.10;;
29358;SDS011;16347;53.232;6.556;2022-07-04T10:32:17;5.88;;;1.33;;
29358;SDS011;16347;53.232;6.556;2022-07-04T10:34:46;8.15;;;1.15;;
29358;SDS011;16347;53.232;6.556;2022-07-04T10:37:14;2.63;;;1.20;;
29358;SDS011;16347;53.232;6.556;2022-07-04T10:39:42;3.60;;;1.20;;
29358;SDS011;16347;53.232;6.556;2022-07-04T10:42:12;6.90;;;1.45;;
29358;SDS011;16347;53.232;6.556;2022-07-04T10:44:52;3.83;;;0.90;;
29358;SDS011;16347;53.232;6.556;2022-07-04T10:47:23;4.40;;;1.13;;
29358;SDS011;16347;53.232;6.556;2022-07-04T10:49:54;4.65;;;1.52;;
29358;SDS011;16347;53.232;6.556;2022-07-04T10:52:22;4.45;;;1.38;;
29358;SDS011;16347;53.232;6.556;2022-07-04T10:54:51;4.28;;;1.25;;
29358;SDS011;16347;53.232;6.556;2022-07-04T10:57:19;2.83;;;1.50;;
29358;SDS011;16347;53.232;6.556;2022-07-04T11:00:03;3.22;;;1.13;;
29358;SDS011;16347;53.232;6.556;2022-07-04T11:02:33;5.07;;;1.30;;
29358;SDS011;16347;53.232;6.556;2022-07-04T11:05:02;6.82;;;1.20;;
29358;SDS011;16347;53.232;6.556;2022-07-04T11:10:23;4.72;;;1.10;;
29358;SDS011;16347;53.232;6.556;2022-07-04T11:13:02;6.18;;;1.15;;
29358;SDS011;16347;53.232;6.556;2022-07-04T11:18:38;1.92;;;0.90;;
29358;SDS011;16347;53.232;6.556;2022-07-04T11:21:15;5.85;;;1.55;;
29358;SDS011;16347;53.232;6.556;2022-07-04T11:23:50;3.72;;;0.90;;
29358;SDS011;16347;53.232;6.556;2022-07-04T11:26:19;2.17;;;0.88;;
29358;SDS011;16347;53.232;6.556;2022-07-04T11:28:49;2.80;;;0.75;;
29358;SDS011;16347;53.232;6.556;2022-07-04T11:31:19;3.75;;;1.02;;
29358;SDS011;16347;53.232;6.556;2022-07-04T11:33:47;5.97;;;0.93;;
29358;SDS011;16347;53.232;6.556;2022-07-04T11:38:53;5.32;;;1.00;;
29358;SDS011;16347;53.232;6.556;2022-07-04T11:41:23;7.78;;;1.00;;
29358;SDS011;16347;53.232;6.556;2022-07-04T11:44:12;1.42;;;0.82;;
29358;SDS011;16347;53.232;6.556;2022-07-04T11:47:04;3.13;;;0.65;;
29358;SDS011;16347;53.232;6.556;2022-07-04T11:49:34;4.90;;;1.00;;
29358;SDS011;16347;53.232;6.556;2022-07-04T11:52:03;3.33;;;0.77;;
29358;SDS011;16347;53.232;6.556;2022-07-04T11:54:31;3.38;;;1.40;;
29358;SDS011;16347;53.232;6.556;2022-07-04T11:57:19;4.32;;;1.73;;
29358;SDS011;16347;53.232;6.556;2022-07-04T11:59:56;6.50;;;1.02;;
29358;SDS011;16347;53.232;6.556;2022-07-04T12:02:28;4.35;;;1.00;;
29358;SDS011;16347;53.232;6.556;2022-07-04T12:04:58;4.47;;;1.00;;
29358;SDS011;16347;53.232;6.556;2022-07-04T12:07:29;4.15;;;0.93;;
29358;SDS011;16347;53.232;6.556;2022-07-04T12:10:06;5.30;;;1.00;;
29358;SDS011;16347;53.232;6.556;2022-07-04T12:12:49;2.08;;;0.80;;
29358;SDS011;16347;53.232;6.556;2022-07-04T12:15:19;3.78;;;1.25;;
29358;SDS011;16347;53.232;6.556;2022-07-04T12:17:50;2.60;;;0.80;;
29358;SDS011;16347;53.232;6.556;2022-07-04T12:20:21;2.00;;;0.73;;
29358;SDS011;16347;53.232;6.556;2022-07-04T12:22:51;3.00;;;1.08;;
29358;SDS011;16347;53.232;6.556;2022-07-04T12:25:27;3.60;;;0.90;;
29358;SDS011;16347;53.232;6.556;2022-07-04T12:27:59;6.10;;;0.77;;
29358;SDS011;16347;53.232;6.556;2022-07-04T12:30:28;4.38;;;1.10;;
29358;SDS011;16347;53.232;6.556;2022-07-04T12:33:00;4.30;;;1.10;;
29358;SDS011;16347;53.232;6.556;2022-07-04T12:35:33;2.17;;;0.93;;
29358;SDS011;16347;53.232;6.556;2022-07-04T12:38:05;2.30;;;1.00;;
29358;SDS011;16347;53.232;6.556;2022-07-04T12:40:35;4.70;;;0.88;;
29358;SDS011;16347;53.232;6.556;2022-07-04T12:43:09;4.30;;;1.20;;
29358;SDS011;16347;53.232;6.556;2022-07-04T12:45:41;3.35;;;1.20;;
29358;SDS011;16347;53.232;6.556;2022-07-04T12:48:21;5.35;;;0.98;;
29358;SDS011;16347;53.232;6.556;2022-07-04T12:50:50;3.88;;;1.08;;
29358;SDS011;16347;53.232;6.556;2022-07-04T12:53:19;3.15;;;1.05;;
29358;SDS011;16347;53.232;6.556;2022-07-04T12:55:48;3.55;;;1.25;;
29358;SDS011;16347;53.232;6.556;2022-07-04T12:58:17;2.05;;;0.82;;
29358;SDS011;16347;53.232;6.556;2022-07-04T13:00:45;2.42;;;1.10;;
29358;SDS011;16347;53.232;6.556;2022-07-04T13:03:13;2.08;;;1.00;;
29358;SDS011;16347;53.232;6.556;2022-07-04T13:05:43;7.43;;;1.48;;
29358;SDS011;16347;53.232;6.556;2022-07-04T13:08:12;2.35;;;0.93;;
29358;SDS011;16347;53.232;6.556;2022-07-04T13:10:40;3.72;;;1.20;;
29358;SDS011;16347;53.232;6.556;2022-07-04T13:13:08;3.42;;;1.00;;
29358;SDS011;16347;53.232;6.556;2022-07-04T13:15:36;2.35;;;0.82;;
29358;SDS011;16347;53.232;6.556;2022-07-04T13:18:04;4.53;;;1.15;;
29358;SDS011;16347;53.232;6.556;2022-07-04T13:20:32;2.17;;;0.90;;
29358;SDS011;16347;53.232;6.556;2022-07-04T13:23:01;2.92;;;0.70;;
29358;SDS011;16347;53.232;6.556;2022-07-04T13:25:39;2.17;;;0.88;;
29358;SDS011;16347;53.232;6.556;2022-07-04T13:28:07;6.28;;;0.90;;
29358;SDS011;16347;53.232;6.556;2022-07-04T13:30:35;11.00;;;1.10;;
29358;SDS011;16347;53.232;6.556;2022-07-04T13:33:03;4.10;;;0.80;;
29358;SDS011;16347;53.232;6.556;2022-07-04T13:35:31;4.10;;;0.85;;
29358;SDS011;16347;53.232;6.556;2022-07-04T13:37:59;4.22;;;0.95;;
29358;SDS011;16347;53.232;6.556;2022-07-04T13:40:29;3.00;;;0.60;;
29358;SDS011;16347;53.232;6.556;2022-07-04T13:42:57;3.55;;;0.90;;
29358;SDS011;16347;53.232;6.556;2022-07-04T13:45:25;3.95;;;0.70;;
29358;SDS011;16347;53.232;6.556;2022-07-04T13:47:54;2.42;;;0.70;;
29358;SDS011;16347;53.232;6.556;2022-07-04T13:50:22;3.95;;;0.63;;
29358;SDS011;16347;53.232;6.556;2022-07-04T13:52:50;2.13;;;0.65;;
29358;SDS011;16347;53.232;6.556;2022-07-04T13:55:18;1.88;;;0.50;;
29358;SDS011;16347;53.232;6.556;2022-07-04T13:57:48;3.80;;;1.20;;
29358;SDS011;16347;53.232;6.556;2022-07-04T14:00:16;3.35;;;0.95;;
29358;SDS011;16347;53.232;6.556;2022-07-04T14:02:44;3.83;;;0.63;;
29358;SDS011;16347;53.232;6.556;2022-07-04T14:05:12;2.80;;;0.90;;
29358;SDS011;16347;53.232;6.556;2022-07-04T14:07:40;2.75;;;0.88;;
29358;SDS011;16347;53.232;6.556;2022-07-04T14:10:09;1.85;;;0.80;;
29358;SDS011;16347;53.232;6.556;2022-07-04T14:12:37;1.02;;;0.43;;
29358;SDS011;16347;53.232;6.556;2022-07-04T14:15:08;4.50;;;0.60;;
29358;SDS011;16347;53.232;6.556;2022-07-04T14:17:37;2.83;;;0.63;;
29358;SDS011;16347;53.232;6.556;2022-07-04T14:20:06;1.58;;;0.60;;
29358;SDS011;16347;53.232;6.556;2022-07-04T14:22:36;3.65;;;0.77;;
29358;SDS011;16347;53.232;6.556;2022-07-04T14:25:05;5.78;;;0.90;;
29358;SDS011;16347;53.232;6.556;2022-07-04T14:27:34;4.07;;;1.10;;
29358;SDS011;16347;53.232;6.556;2022-07-04T14:30:02;1.65;;;0.60;;
29358;SDS011;16347;53.232;6.556;2022-07-04T14:32:33;1.63;;;0.43;;
29358;SDS011;16347;53.232;6.556;2022-07-04T14:35:01;4.07;;;0.80;;
29358;SDS011;16347;53.232;6.556;2022-07-04T14:37:35;4.05;;;1.00;;
29358;SDS011;16347;53.232;6.556;2022-07-04T14:40:03;8.63;;;0.80;;
29358;SDS011;16347;53.232;6.556;2022-07-04T14:42:32;8.65;;;0.60;;
29358;SDS011;16347;53.232;6.556;2022-07-04T14:45:00;3.85;;;0.65;;
29358;SDS011;16347;53.232;6.556;2022-07-04T14:47:28;1.42;;;0.50;;
29358;SDS011;16347;53.232;6.556;2022-07-04T14:49:59;2.38;;;0.70;;
29358;SDS011;16347;53.232;6.556;2022-07-04T14:52:27;5.35;;;0.70;;
29358;SDS011;16347;53.232;6.556;2022-07-04T14:54:55;2.80;;;0.63;;
29358;SDS011;16347;53.232;6.556;2022-07-04T14:57:23;4.97;;;0.68;;
29358;SDS011;16347;53.232;6.556;2022-07-04T14:59:52;3.00;;;0.77;;
29358;SDS011;16347;53.232;6.556;2022-07-04T15:02:20;7.10;;;1.40;;
29358;SDS011;16347;53.232;6.556;2022-07-04T15:04:48;2.22;;;0.65;;
29358;SDS011;16347;53.232;6.556;2022-07-04T15:07:18;5.45;;;0.77;;
29358;SDS011;16347;53.232;6.556;2022-07-04T15:09:46;3.17;;;0.82;;
29358;SDS011;16347;53.232;6.556;2022-07-04T15:12:14;1.13;;;0.40;;
29358;SDS011;16347;53.232;6.556;2022-07-04T15:14:42;5.25;;;1.17;;
29358;SDS011;16347;53.232;6.556;2022-07-04T15:17:10;6.53;;;0.85;;